sensor_id;sensor_type;location;lat;lon;timestamp;temperature;humidity
43999;DHT22;51319;52.162;5.302;2023-08-06T00:01:01;15.70;99.90
43999;DHT22;51319;52.162;5.302;2023-08-06T00:03:29;15.60;99.90
43999;DHT22;51319;52.162;5.302;2023-08-06T00:05:56;15.60;99.90
43999;DHT22;51319;52.162;5.302;2023-08-06T00:08:23;15.60;99.90
43999;DHT22;51319;52.162;5.302;2023-08-06T00:10:50;15.60;99.90
43999;DHT22;51319;52.162;5.302;2023-08-06T00:13:17;15.60;99.90
43999;DHT22;51319;52.162;5.302;2023-08-06T00:15:44;15.60;99.90
43999;DHT22;51319;52.162;5.302;2023-08-06T00:18:11;15.60;99.90
43999;DHT22;51319;52.162;5.302;2023-08-06T00:20:39;15.50;99.90
43999;DHT22;51319;52.162;5.302;2023-08-06T00:23:07;15.60;99.90
43999;DHT22;51319;52.162;5.302;2023-08-06T00:25:36;15.60;99.90
43999;DHT22;51319;52.162;5.302;2023-08-06T00:28:03;15.60;99.90
43999;DHT22;51319;52.162;5.302;2023-08-06T00:30:31;15.60;99.90
43999;DHT22;51319;52.162;5.302;2023-08-06T00:32:58;15.60;99.90
43999;DHT22;51319;52.162;5.302;2023-08-06T00:35:25;15.70;99.90
43999;DHT22;51319;52.162;5.302;2023-08-06T00:37:52;15.70;99.90
43999;DHT22;51319;52.162;5.302;2023-08-06T00:40:21;15.70;99.90
43999;DHT22;51319;52.162;5.302;2023-08-06T00:42:49;15.70;99.90
43999;DHT22;51319;52.162;5.302;2023-08-06T00:45:16;15.70;99.90
43999;DHT22;51319;52.162;5.302;2023-08-06T00:47:43;15.70;99.90
43999;DHT22;51319;52.162;5.302;2023-08-06T00:50:11;15.70;99.90
43999;DHT22;51319;52.162;5.302;2023-08-06T00:52:38;15.70;99.90
43999;DHT22;51319;52.162;5.302;2023-08-06T00:55:06;15.70;99.90
43999;DHT22;51319;52.162;5.302;2023-08-06T00:57:33;15.70;99.90
43999;DHT22;51319;52.162;5.302;2023-08-06T01:00:00;15.70;99.90
43999;DHT22;51319;52.162;5.302;2023-08-06T01:02:27;15.80;99.90
43999;DHT22;51319;52.162;5.302;2023-08-06T01:04:54;15.80;99.90
43999;DHT22;51319;52.162;5.302;2023-08-06T01:07:25;15.80;99.90
43999;DHT22;51319;52.162;5.302;2023-08-06T01:13:13;15.80;99.90
43999;DHT22;51319;52.162;5.302;2023-08-06T01:15:49;15.80;99.90
43999;DHT22;51319;52.162;5.302;2023-08-06T01:18:16;15.80;99.90
43999;DHT22;51319;52.162;5.302;2023-08-06T01:20:43;15.70;99.90
43999;DHT22;51319;52.162;5.302;2023-08-06T01:23:10;15.80;99.90
43999;DHT22;51319;52.162;5.302;2023-08-06T01:31:36;15.70;99.90
43999;DHT22;51319;52.162;5.302;2023-08-06T01:34:06;15.70;99.90
43999;DHT22;51319;52.162;5.302;2023-08-06T01:36:34;15.70;99.90
43999;DHT22;51319;52.162;5.302;2023-08-06T01:39:01;15.70;99.90
43999;DHT22;51319;52.162;5.302;2023-08-06T01:41:28;15.70;99.90
43999;DHT22;51319;52.162;5.302;2023-08-06T01:43:55;15.70;99.90
43999;DHT22;51319;52.162;5.302;2023-08-06T01:46:22;15.70;99.90
43999;DHT22;51319;52.162;5.302;2023-08-06T01:48:49;15.80;99.90
43999;DHT22;51319;52.162;5.302;2023-08-06T01:51:16;15.70;99.90
43999;DHT22;51319;52.162;5.302;2023-08-06T01:53:43;15.80;99.90
43999;DHT22;51319;52.162;5.302;2023-08-06T01:56:10;15.80;99.90
43999;DHT22;51319;52.162;5.302;2023-08-06T01:58:37;15.80;99.90
43999;DHT22;51319;52.162;5.302;2023-08-06T02:01:04;15.70;99.90
43999;DHT22;51319;52.162;5.302;2023-08-06T02:03:31;15.80;99.90
43999;DHT22;51319;52.162;5.302;2023-08-06T02:05:59;15.80;99.90
43999;DHT22;51319;52.162;5.302;2023-08-06T02:08:27;15.80;99.90
43999;DHT22;51319;52.162;5.302;2023-08-06T02:10:54;15.80;99.90
43999;DHT22;51319;52.162;5.302;2023-08-06T02:13:21;15.80;99.90
43999;DHT22;51319;52.162;5.302;2023-08-06T02:15:48;15.80;99.90
43999;DHT22;51319;52.162;5.302;2023-08-06T02:18:16;15.80;99.90
43999;DHT22;51319;52.162;5.302;2023-08-06T02:20:43;15.80;99.90
43999;DHT22;51319;52.162;5.302;2023-08-06T02:23:10;15.80;99.90
43999;DHT22;51319;52.162;5.302;2023-08-06T02:25:37;15.80;99.90
43999;DHT22;51319;52.162;5.302;2023-08-06T02:28:04;15.80;99.90
43999;DHT22;51319;52.162;5.302;2023-08-06T02:30:31;15.80;99.90
43999;DHT22;51319;52.162;5.302;2023-08-06T02:32:59;15.80;99.90
43999;DHT22;51319;52.162;5.302;2023-08-06T02:35:26;15.80;99.90
43999;DHT22;51319;52.162;5.302;2023-08-06T02:37:52;15.90;99.90
43999;DHT22;51319;52.162;5.302;2023-08-06T02:40:20;15.80;99.90
43999;DHT22;51319;52.162;5.302;2023-08-06T02:42:47;15.80;99.90
43999;DHT22;51319;52.162;5.302;2023-08-06T02:45:14;15.80;99.90
43999;DHT22;51319;52.162;5.302;2023-08-06T02:47:41;15.90;99.90
43999;DHT22;51319;52.162;5.302;2023-08-06T02:50:08;15.90;99.90
43999;DHT22;51319;52.162;5.302;2023-08-06T02:52:36;15.90;99.90
43999;DHT22;51319;52.162;5.302;2023-08-06T02:55:06;15.80;99.90
43999;DHT22;51319;52.162;5.302;2023-08-06T02:57:33;15.80;99.90
43999;DHT22;51319;52.162;5.302;2023-08-06T03:00:00;15.90;99.90
43999;DHT22;51319;52.162;5.302;2023-08-06T03:02:27;15.90;99.90
43999;DHT22;51319;52.162;5.302;2023-08-06T03:04:54;15.80;99.90
43999;DHT22;51319;52.162;5.302;2023-08-06T03:07:21;15.80;99.90
43999;DHT22;51319;52.162;5.302;2023-08-06T03:09:48;15.90;99.90
43999;DHT22;51319;52.162;5.302;2023-08-06T03:12:15;15.80;99.90
43999;DHT22;51319;52.162;5.302;2023-08-06T03:14:42;15.80;99.90
43999;DHT22;51319;52.162;5.302;2023-08-06T03:17:09;15.80;99.90
43999;DHT22;51319;52.162;5.302;2023-08-06T03:19:36;15.80;99.90
43999;DHT22;51319;52.162;5.302;2023-08-06T03:22:03;15.80;99.90
43999;DHT22;51319;52.162;5.302;2023-08-06T03:24:30;15.80;99.90
43999;DHT22;51319;52.162;5.302;2023-08-06T03:26:57;15.80;99.90
43999;DHT22;51319;52.162;5.302;2023-08-06T03:29:24;15.80;99.90
43999;DHT22;51319;52.162;5.302;2023-08-06T03:31:52;15.80;99.90
43999;DHT22;51319;52.162;5.302;2023-08-06T03:34:19;15.80;99.90
43999;DHT22;51319;52.162;5.302;2023-08-06T03:36:46;15.80;99.90
43999;DHT22;51319;52.162;5.302;2023-08-06T03:39:13;15.80;99.90
43999;DHT22;51319;52.162;5.302;2023-08-06T03:41:40;15.80;99.90
43999;DHT22;51319;52.162;5.302;2023-08-06T03:44:07;15.80;99.90
43999;DHT22;51319;52.162;5.302;2023-08-06T03:46:34;15.80;99.90
43999;DHT22;51319;52.162;5.302;2023-08-06T03:49:02;15.80;99.90
43999;DHT22;51319;52.162;5.302;2023-08-06T03:51:29;15.70;99.90
43999;DHT22;51319;52.162;5.302;2023-08-06T03:53:56;15.70;99.90
43999;DHT22;51319;52.162;5.302;2023-08-06T03:56:23;15.70;99.90
43999;DHT22;51319;52.162;5.302;2023-08-06T03:58:50;15.60;99.90
43999;DHT22;51319;52.162;5.302;2023-08-06T04:01:17;15.60;99.90
43999;DHT22;51319;52.162;5.302;2023-08-06T04:03:45;15.60;99.90
43999;DHT22;51319;52.162;5.302;2023-08-06T04:06:12;15.60;99.90
43999;DHT22;51319;52.162;5.302;2023-08-06T04:08:39;15.60;99.90
43999;DHT22;51319;52.162;5.302;2023-08-06T04:11:06;15.60;99.90
43999;DHT22;51319;52.162;5.302;2023-08-06T04:13:34;15.60;99.90
43999;DHT22;51319;52.162;5.302;2023-08-06T04:16:04;15.60;99.90
43999;DHT22;51319;52.162;5.302;2023-08-06T04:18:33;15.60;99.90
43999;DHT22;51319;52.162;5.302;2023-08-06T04:21:02;15.60;99.90
43999;DHT22;51319;52.162;5.302;2023-08-06T04:23:29;15.60;99.90
43999;DHT22;51319;52.162;5.302;2023-08-06T04:25:57;15.60;99.90
43999;DHT22;51319;52.162;5.302;2023-08-06T04:28:24;15.60;99.90
43999;DHT22;51319;52.162;5.302;2023-08-06T04:30:51;15.60;99.90
43999;DHT22;51319;52.162;5.302;2023-08-06T04:33:20;15.60;99.90
43999;DHT22;51319;52.162;5.302;2023-08-06T04:35:47;15.70;99.90
43999;DHT22;51319;52.162;5.302;2023-08-06T04:38:14;15.70;99.90
43999;DHT22;51319;52.162;5.302;2023-08-06T04:40:42;15.60;99.90
43999;DHT22;51319;52.162;5.302;2023-08-06T04:43:08;15.60;99.90
43999;DHT22;51319;52.162;5.302;2023-08-06T04:45:35;15.70;99.90
43999;DHT22;51319;52.162;5.302;2023-08-06T04:48:03;15.60;99.90
43999;DHT22;51319;52.162;5.302;2023-08-06T04:50:29;15.70;99.90
43999;DHT22;51319;52.162;5.302;2023-08-06T04:52:57;15.70;99.90
43999;DHT22;51319;52.162;5.302;2023-08-06T04:55:23;15.70;99.90
43999;DHT22;51319;52.162;5.302;2023-08-06T04:57:50;15.70;99.90
43999;DHT22;51319;52.162;5.302;2023-08-06T05:00:17;15.70;99.90
43999;DHT22;51319;52.162;5.302;2023-08-06T05:02:48;15.80;99.90
43999;DHT22;51319;52.162;5.302;2023-08-06T05:05:15;15.80;99.90
43999;DHT22;51319;52.162;5.302;2023-08-06T05:07:42;15.80;99.90
43999;DHT22;51319;52.162;5.302;2023-08-06T05:10:10;15.90;99.90
43999;DHT22;51319;52.162;5.302;2023-08-06T05:12:36;15.90;99.90
43999;DHT22;51319;52.162;5.302;2023-08-06T05:15:04;15.90;99.90
43999;DHT22;51319;52.162;5.302;2023-08-06T05:17:31;15.90;99.90
43999;DHT22;51319;52.162;5.302;2023-08-06T05:19:58;15.90;99.90
43999;DHT22;51319;52.162;5.302;2023-08-06T05:22:25;16.00;99.90
43999;DHT22;51319;52.162;5.302;2023-08-06T05:24:52;16.00;99.90
43999;DHT22;51319;52.162;5.302;2023-08-06T05:27:19;15.90;99.90
43999;DHT22;51319;52.162;5.302;2023-08-06T05:29:48;15.90;99.90
43999;DHT22;51319;52.162;5.302;2023-08-06T05:32:15;15.90;99.90
43999;DHT22;51319;52.162;5.302;2023-08-06T05:34:42;15.90;99.90
43999;DHT22;51319;52.162;5.302;2023-08-06T05:37:09;15.90;99.90
43999;DHT22;51319;52.162;5.302;2023-08-06T05:39:36;15.90;99.90
43999;DHT22;51319;52.162;5.302;2023-08-06T05:42:03;15.90;99.90
43999;DHT22;51319;52.162;5.302;2023-08-06T05:44:30;15.90;99.90
43999;DHT22;51319;52.162;5.302;2023-08-06T05:46:59;15.90;99.90
43999;DHT22;51319;52.162;5.302;2023-08-06T05:49:25;15.90;99.90
43999;DHT22;51319;52.162;5.302;2023-08-06T05:51:53;16.00;99.90
43999;DHT22;51319;52.162;5.302;2023-08-06T05:54:20;15.90;99.90
43999;DHT22;51319;52.162;5.302;2023-08-06T05:56:47;15.90;99.90
43999;DHT22;51319;52.162;5.302;2023-08-06T05:59:14;16.00;99.90
43999;DHT22;51319;52.162;5.302;2023-08-06T06:01:41;16.00;99.90
43999;DHT22;51319;52.162;5.302;2023-08-06T06:04:08;16.00;99.90
43999;DHT22;51319;52.162;5.302;2023-08-06T06:06:35;16.00;99.90
43999;DHT22;51319;52.162;5.302;2023-08-06T06:09:02;16.00;99.90
43999;DHT22;51319;52.162;5.302;2023-08-06T06:11:29;16.00;99.90
43999;DHT22;51319;52.162;5.302;2023-08-06T06:13:56;16.00;99.90
43999;DHT22;51319;52.162;5.302;2023-08-06T06:16:23;16.10;99.90
43999;DHT22;51319;52.162;5.302;2023-08-06T06:18:50;16.10;99.90
43999;DHT22;51319;52.162;5.302;2023-08-06T06:21:17;16.00;99.90
43999;DHT22;51319;52.162;5.302;2023-08-06T06:23:44;16.00;99.90
43999;DHT22;51319;52.162;5.302;2023-08-06T06:26:11;16.00;99.90
43999;DHT22;51319;52.162;5.302;2023-08-06T06:28:38;16.00;99.90
43999;DHT22;51319;52.162;5.302;2023-08-06T06:31:05;16.10;99.90
43999;DHT22;51319;52.162;5.302;2023-08-06T06:33:32;16.10;99.90
43999;DHT22;51319;52.162;5.302;2023-08-06T06:35:59;16.00;99.90
43999;DHT22;51319;52.162;5.302;2023-08-06T06:38:26;16.00;99.90
43999;DHT22;51319;52.162;5.302;2023-08-06T06:40:57;16.00;99.90
43999;DHT22;51319;52.162;5.302;2023-08-06T06:43:24;16.00;99.90
43999;DHT22;51319;52.162;5.302;2023-08-06T06:46:01;16.00;99.90
43999;DHT22;51319;52.162;5.302;2023-08-06T06:48:32;16.10;99.90
43999;DHT22;51319;52.162;5.302;2023-08-06T06:50:59;16.10;99.90
43999;DHT22;51319;52.162;5.302;2023-08-06T06:53:26;16.10;99.90
43999;DHT22;51319;52.162;5.302;2023-08-06T06:55:55;16.10;99.90
43999;DHT22;51319;52.162;5.302;2023-08-06T06:58:22;16.20;99.90
43999;DHT22;51319;52.162;5.302;2023-08-06T07:00:49;16.20;99.90
43999;DHT22;51319;52.162;5.302;2023-08-06T07:03:16;16.30;99.90
43999;DHT22;51319;52.162;5.302;2023-08-06T07:05:44;16.20;99.90
43999;DHT22;51319;52.162;5.302;2023-08-06T07:08:11;16.20;99.90
43999;DHT22;51319;52.162;5.302;2023-08-06T07:10:40;16.20;99.90
43999;DHT22;51319;52.162;5.302;2023-08-06T07:13:09;16.20;99.90
43999;DHT22;51319;52.162;5.302;2023-08-06T07:15:36;16.10;99.90
43999;DHT22;51319;52.162;5.302;2023-08-06T07:18:03;16.10;99.90
43999;DHT22;51319;52.162;5.302;2023-08-06T07:20:30;16.00;99.90
43999;DHT22;51319;52.162;5.302;2023-08-06T07:23:00;16.00;99.90
43999;DHT22;51319;52.162;5.302;2023-08-06T07:25:27;15.90;99.90
43999;DHT22;51319;52.162;5.302;2023-08-06T07:27:54;15.90;99.90
43999;DHT22;51319;52.162;5.302;2023-08-06T07:30:21;15.80;99.90
43999;DHT22;51319;52.162;5.302;2023-08-06T07:32:48;15.80;99.90
43999;DHT22;51319;52.162;5.302;2023-08-06T07:35:15;15.80;99.90
43999;DHT22;51319;52.162;5.302;2023-08-06T07:37:42;15.80;99.90
43999;DHT22;51319;52.162;5.302;2023-08-06T07:40:09;15.80;99.90
43999;DHT22;51319;52.162;5.302;2023-08-06T07:42:37;15.80;99.90
43999;DHT22;51319;52.162;5.302;2023-08-06T07:45:04;15.80;99.90
43999;DHT22;51319;52.162;5.302;2023-08-06T07:47:31;15.70;99.90
43999;DHT22;51319;52.162;5.302;2023-08-06T07:49:59;15.70;99.90
43999;DHT22;51319;52.162;5.302;2023-08-06T07:52:26;15.60;99.90
43999;DHT22;51319;52.162;5.302;2023-08-06T07:54:53;15.60;99.90
43999;DHT22;51319;52.162;5.302;2023-08-06T07:57:20;15.60;99.90
43999;DHT22;51319;52.162;5.302;2023-08-06T07:59:47;15.60;99.90
43999;DHT22;51319;52.162;5.302;2023-08-06T08:02:14;15.50;99.90
43999;DHT22;51319;52.162;5.302;2023-08-06T08:04:41;15.40;99.90
43999;DHT22;51319;52.162;5.302;2023-08-06T08:07:10;15.40;99.90
43999;DHT22;51319;52.162;5.302;2023-08-06T08:09:38;15.40;99.90
43999;DHT22;51319;52.162;5.302;2023-08-06T08:12:05;15.40;99.90
43999;DHT22;51319;52.162;5.302;2023-08-06T08:14:32;15.40;99.90
43999;DHT22;51319;52.162;5.302;2023-08-06T08:17:05;15.40;99.90
43999;DHT22;51319;52.162;5.302;2023-08-06T08:19:32;15.40;99.90
43999;DHT22;51319;52.162;5.302;2023-08-06T08:22:00;15.50;99.90
43999;DHT22;51319;52.162;5.302;2023-08-06T08:24:27;15.50;99.90
43999;DHT22;51319;52.162;5.302;2023-08-06T08:26:54;15.40;99.90
43999;DHT22;51319;52.162;5.302;2023-08-06T08:29:21;15.40;99.90
43999;DHT22;51319;52.162;5.302;2023-08-06T08:31:49;15.50;99.90
43999;DHT22;51319;52.162;5.302;2023-08-06T08:34:17;15.60;99.90
43999;DHT22;51319;52.162;5.302;2023-08-06T08:36:45;15.60;99.90
43999;DHT22;51319;52.162;5.302;2023-08-06T08:39:17;15.60;99.90
43999;DHT22;51319;52.162;5.302;2023-08-06T08:41:44;15.60;99.90
43999;DHT22;51319;52.162;5.302;2023-08-06T08:44:13;15.50;99.90
43999;DHT22;51319;52.162;5.302;2023-08-06T08:46:43;15.60;99.90
43999;DHT22;51319;52.162;5.302;2023-08-06T08:49:11;15.60;99.90
43999;DHT22;51319;52.162;5.302;2023-08-06T08:51:38;15.70;99.90
43999;DHT22;51319;52.162;5.302;2023-08-06T08:54:07;15.70;99.90
43999;DHT22;51319;52.162;5.302;2023-08-06T08:56:35;15.70;99.90
43999;DHT22;51319;52.162;5.302;2023-08-06T08:59:03;15.80;99.90
43999;DHT22;51319;52.162;5.302;2023-08-06T09:01:30;15.80;99.90
43999;DHT22;51319;52.162;5.302;2023-08-06T09:03:57;15.90;99.90
43999;DHT22;51319;52.162;5.302;2023-08-06T09:06:26;15.90;99.90
43999;DHT22;51319;52.162;5.302;2023-08-06T09:09:06;15.90;99.90
43999;DHT22;51319;52.162;5.302;2023-08-06T09:11:39;16.00;99.90
43999;DHT22;51319;52.162;5.302;2023-08-06T09:14:09;16.00;99.90
43999;DHT22;51319;52.162;5.302;2023-08-06T09:16:37;16.00;99.90
43999;DHT22;51319;52.162;5.302;2023-08-06T09:19:12;16.00;99.90
43999;DHT22;51319;52.162;5.302;2023-08-06T09:21:40;16.00;99.90
43999;DHT22;51319;52.162;5.302;2023-08-06T09:24:09;16.00;99.90
43999;DHT22;51319;52.162;5.302;2023-08-06T09:26:37;16.00;99.90
43999;DHT22;51319;52.162;5.302;2023-08-06T09:29:06;16.00;99.90
43999;DHT22;51319;52.162;5.302;2023-08-06T09:31:41;16.10;99.90
43999;DHT22;51319;52.162;5.302;2023-08-06T09:34:15;16.20;99.90
43999;DHT22;51319;52.162;5.302;2023-08-06T09:36:51;16.20;99.90
43999;DHT22;51319;52.162;5.302;2023-08-06T09:39:20;16.40;99.90
43999;DHT22;51319;52.162;5.302;2023-08-06T09:41:48;16.50;99.90
43999;DHT22;51319;52.162;5.302;2023-08-06T09:44:19;16.60;99.90
43999;DHT22;51319;52.162;5.302;2023-08-06T09:46:56;16.60;99.90
43999;DHT22;51319;52.162;5.302;2023-08-06T09:49:41;16.70;99.90
43999;DHT22;51319;52.162;5.302;2023-08-06T09:52:15;16.80;99.90
43999;DHT22;51319;52.162;5.302;2023-08-06T09:54:43;16.80;99.90
43999;DHT22;51319;52.162;5.302;2023-08-06T09:57:12;16.80;99.90
43999;DHT22;51319;52.162;5.302;2023-08-06T10:13:10;16.80;99.90
43999;DHT22;51319;52.162;5.302;2023-08-06T10:15:38;16.80;99.90
43999;DHT22;51319;52.162;5.302;2023-08-06T10:18:06;16.90;99.90
43999;DHT22;51319;52.162;5.302;2023-08-06T10:20:36;17.00;99.90
43999;DHT22;51319;52.162;5.302;2023-08-06T10:23:05;17.00;99.90
43999;DHT22;51319;52.162;5.302;2023-08-06T10:25:35;17.00;99.90
43999;DHT22;51319;52.162;5.302;2023-08-06T10:28:11;16.90;99.90
43999;DHT22;51319;52.162;5.302;2023-08-06T10:30:45;16.90;99.90
43999;DHT22;51319;52.162;5.302;2023-08-06T10:33:13;17.10;99.90
43999;DHT22;51319;52.162;5.302;2023-08-06T10:35:44;17.20;99.90
43999;DHT22;51319;52.162;5.302;2023-08-06T10:38:22;17.20;99.90
43999;DHT22;51319;52.162;5.302;2023-08-06T10:41:01;17.30;99.90
43999;DHT22;51319;52.162;5.302;2023-08-06T10:43:33;17.50;99.90
43999;DHT22;51319;52.162;5.302;2023-08-06T10:46:09;17.70;99.90
43999;DHT22;51319;52.162;5.302;2023-08-06T10:48:40;17.80;99.90
43999;DHT22;51319;52.162;5.302;2023-08-06T10:51:14;17.80;99.90
43999;DHT22;51319;52.162;5.302;2023-08-06T10:53:47;17.70;99.90
43999;DHT22;51319;52.162;5.302;2023-08-06T10:58:46;17.70;99.90
43999;DHT22;51319;52.162;5.302;2023-08-06T11:01:13;17.80;99.90
43999;DHT22;51319;52.162;5.302;2023-08-06T11:03:43;17.90;99.90
43999;DHT22;51319;52.162;5.302;2023-08-06T11:06:10;17.90;99.90
43999;DHT22;51319;52.162;5.302;2023-08-06T11:08:40;18.10;99.90
43999;DHT22;51319;52.162;5.302;2023-08-06T11:11:14;18.20;99.90
43999;DHT22;51319;52.162;5.302;2023-08-06T11:13:42;18.30;99.90
43999;DHT22;51319;52.162;5.302;2023-08-06T11:16:10;18.40;99.90
43999;DHT22;51319;52.162;5.302;2023-08-06T11:18:37;18.50;99.50
43999;DHT22;51319;52.162;5.302;2023-08-06T11:21:07;18.50;99.30
43999;DHT22;51319;52.162;5.302;2023-08-06T11:23:37;18.50;99.30
43999;DHT22;51319;52.162;5.302;2023-08-06T11:26:04;18.40;99.00
43999;DHT22;51319;52.162;5.302;2023-08-06T11:28:35;18.40;99.20
43999;DHT22;51319;52.162;5.302;2023-08-06T11:31:02;18.30;98.90
43999;DHT22;51319;52.162;5.302;2023-08-06T11:33:30;18.10;98.60
43999;DHT22;51319;52.162;5.302;2023-08-06T11:35:59;18.00;98.60
43999;DHT22;51319;52.162;5.302;2023-08-06T11:38:30;17.80;98.60
43999;DHT22;51319;52.162;5.302;2023-08-06T11:40:57;17.80;98.70
43999;DHT22;51319;52.162;5.302;2023-08-06T11:43:24;17.60;98.40
43999;DHT22;51319;52.162;5.302;2023-08-06T11:45:51;17.50;98.30
43999;DHT22;51319;52.162;5.302;2023-08-06T11:48:20;17.40;98.60
43999;DHT22;51319;52.162;5.302;2023-08-06T11:50:47;17.30;98.80
43999;DHT22;51319;52.162;5.302;2023-08-06T11:53:15;17.20;99.10
43999;DHT22;51319;52.162;5.302;2023-08-06T11:55:42;17.10;99.40
43999;DHT22;51319;52.162;5.302;2023-08-06T11:58:11;17.00;99.70
43999;DHT22;51319;52.162;5.302;2023-08-06T12:00:42;16.90;99.90
43999;DHT22;51319;52.162;5.302;2023-08-06T12:03:10;16.90;99.90
43999;DHT22;51319;52.162;5.302;2023-08-06T12:05:37;16.80;99.90
43999;DHT22;51319;52.162;5.302;2023-08-06T12:08:05;16.80;99.90
43999;DHT22;51319;52.162;5.302;2023-08-06T12:10:33;16.80;99.90
43999;DHT22;51319;52.162;5.302;2023-08-06T12:13:00;16.80;99.90
43999;DHT22;51319;52.162;5.302;2023-08-06T12:15:27;16.70;99.90
43999;DHT22;51319;52.162;5.302;2023-08-06T12:17:56;16.70;99.90
43999;DHT22;51319;52.162;5.302;2023-08-06T12:20:23;16.70;99.90
43999;DHT22;51319;52.162;5.302;2023-08-06T12:22:52;16.70;99.90
43999;DHT22;51319;52.162;5.302;2023-08-06T12:25:19;16.70;99.90
43999;DHT22;51319;52.162;5.302;2023-08-06T12:27:46;16.70;99.90
43999;DHT22;51319;52.162;5.302;2023-08-06T12:30:13;16.70;99.90
43999;DHT22;51319;52.162;5.302;2023-08-06T12:32:40;16.70;99.90
43999;DHT22;51319;52.162;5.302;2023-08-06T12:35:08;16.70;99.90
43999;DHT22;51319;52.162;5.302;2023-08-06T12:37:35;16.70;99.90
43999;DHT22;51319;52.162;5.302;2023-08-06T12:40:03;16.70;99.90
43999;DHT22;51319;52.162;5.302;2023-08-06T12:42:51;16.70;99.90
43999;DHT22;51319;52.162;5.302;2023-08-06T12:45:19;16.70;99.90
43999;DHT22;51319;52.162;5.302;2023-08-06T12:47:48;16.70;99.90
43999;DHT22;51319;52.162;5.302;2023-08-06T12:50:16;16.70;99.90
43999;DHT22;51319;52.162;5.302;2023-08-06T12:52:44;16.70;99.90
43999;DHT22;51319;52.162;5.302;2023-08-06T12:55:11;16.70;99.90
43999;DHT22;51319;52.162;5.302;2023-08-06T12:57:38;16.70;99.90
43999;DHT22;51319;52.162;5.302;2023-08-06T13:00:25;16.70;99.90
43999;DHT22;51319;52.162;5.302;2023-08-06T13:02:52;16.70;99.90
43999;DHT22;51319;52.162;5.302;2023-08-06T13:05:21;16.70;99.90
43999;DHT22;51319;52.162;5.302;2023-08-06T13:07:48;16.70;99.90
43999;DHT22;51319;52.162;5.302;2023-08-06T13:10:15;16.70;99.90
43999;DHT22;51319;52.162;5.302;2023-08-06T13:12:43;16.70;99.90
43999;DHT22;51319;52.162;5.302;2023-08-06T13:15:11;16.70;99.90
43999;DHT22;51319;52.162;5.302;2023-08-06T13:17:38;16.80;99.90
43999;DHT22;51319;52.162;5.302;2023-08-06T13:20:06;16.80;99.90
43999;DHT22;51319;52.162;5.302;2023-08-06T13:22:33;16.80;99.90
43999;DHT22;51319;52.162;5.302;2023-08-06T13:25:00;16.90;99.90
43999;DHT22;51319;52.162;5.302;2023-08-06T13:27:26;16.80;99.90
43999;DHT22;51319;52.162;5.302;2023-08-06T13:29:55;16.90;99.90
43999;DHT22;51319;52.162;5.302;2023-08-06T13:32:22;16.90;99.90
43999;DHT22;51319;52.162;5.302;2023-08-06T13:34:49;16.80;99.90
43999;DHT22;51319;52.162;5.302;2023-08-06T13:37:17;16.90;99.90
43999;DHT22;51319;52.162;5.302;2023-08-06T13:39:44;16.90;99.90
43999;DHT22;51319;52.162;5.302;2023-08-06T13:42:12;17.00;99.90
43999;DHT22;51319;52.162;5.302;2023-08-06T13:44:38;17.00;99.90
43999;DHT22;51319;52.162;5.302;2023-08-06T13:47:07;17.10;99.90
43999;DHT22;51319;52.162;5.302;2023-08-06T13:49:34;17.10;99.90
43999;DHT22;51319;52.162;5.302;2023-08-06T13:52:01;17.10;99.90
43999;DHT22;51319;52.162;5.302;2023-08-06T13:54:46;17.20;99.90
43999;DHT22;51319;52.162;5.302;2023-08-06T13:57:13;17.20;99.90
43999;DHT22;51319;52.162;5.302;2023-08-06T13:59:40;17.30;99.90
43999;DHT22;51319;52.162;5.302;2023-08-06T14:02:07;17.30;99.90
43999;DHT22;51319;52.162;5.302;2023-08-06T14:04:35;17.40;99.90
43999;DHT22;51319;52.162;5.302;2023-08-06T14:07:03;17.40;99.90
43999;DHT22;51319;52.162;5.302;2023-08-06T14:09:30;17.50;99.90
43999;DHT22;51319;52.162;5.302;2023-08-06T14:11:57;17.50;99.90
43999;DHT22;51319;52.162;5.302;2023-08-06T14:14:24;17.50;99.90
43999;DHT22;51319;52.162;5.302;2023-08-06T14:16:54;17.60;99.90
43999;DHT22;51319;52.162;5.302;2023-08-06T14:19:22;17.60;99.90
43999;DHT22;51319;52.162;5.302;2023-08-06T14:21:50;17.60;99.90
43999;DHT22;51319;52.162;5.302;2023-08-06T14:24:18;17.70;99.90
43999;DHT22;51319;52.162;5.302;2023-08-06T14:26:45;17.70;99.90
43999;DHT22;51319;52.162;5.302;2023-08-06T14:29:12;17.70;99.90
43999;DHT22;51319;52.162;5.302;2023-08-06T14:31:40;17.80;99.90
43999;DHT22;51319;52.162;5.302;2023-08-06T14:34:07;17.80;99.90
43999;DHT22;51319;52.162;5.302;2023-08-06T14:36:34;17.80;99.90
43999;DHT22;51319;52.162;5.302;2023-08-06T14:39:02;17.90;99.90
43999;DHT22;51319;52.162;5.302;2023-08-06T14:41:29;18.00;99.90
43999;DHT22;51319;52.162;5.302;2023-08-06T14:43:56;18.10;99.90
43999;DHT22;51319;52.162;5.302;2023-08-06T14:46:24;18.20;99.90
43999;DHT22;51319;52.162;5.302;2023-08-06T14:48:51;18.20;99.90
43999;DHT22;51319;52.162;5.302;2023-08-06T14:51:18;18.30;99.90
43999;DHT22;51319;52.162;5.302;2023-08-06T14:53:47;18.40;99.90
43999;DHT22;51319;52.162;5.302;2023-08-06T14:56:14;18.60;99.90
43999;DHT22;51319;52.162;5.302;2023-08-06T14:58:41;18.70;99.90
43999;DHT22;51319;52.162;5.302;2023-08-06T15:01:08;18.60;99.90
43999;DHT22;51319;52.162;5.302;2023-08-06T15:03:36;18.20;99.90
43999;DHT22;51319;52.162;5.302;2023-08-06T15:06:04;17.90;99.90
43999;DHT22;51319;52.162;5.302;2023-08-06T15:08:31;17.60;99.90
43999;DHT22;51319;52.162;5.302;2023-08-06T15:10:58;17.50;99.90
43999;DHT22;51319;52.162;5.302;2023-08-06T15:13:32;17.50;99.90
43999;DHT22;51319;52.162;5.302;2023-08-06T15:16:00;17.40;99.90
43999;DHT22;51319;52.162;5.302;2023-08-06T15:18:27;17.40;99.90
43999;DHT22;51319;52.162;5.302;2023-08-06T15:20:54;17.50;99.90
43999;DHT22;51319;52.162;5.302;2023-08-06T15:23:21;17.60;99.90
43999;DHT22;51319;52.162;5.302;2023-08-06T15:25:49;17.70;99.90
43999;DHT22;51319;52.162;5.302;2023-08-06T15:28:16;17.80;99.90
43999;DHT22;51319;52.162;5.302;2023-08-06T15:30:51;17.80;99.30
43999;DHT22;51319;52.162;5.302;2023-08-06T15:33:20;17.70;98.80
43999;DHT22;51319;52.162;5.302;2023-08-06T15:35:48;17.70;98.70
43999;DHT22;51319;52.162;5.302;2023-08-06T15:38:15;17.60;98.60
43999;DHT22;51319;52.162;5.302;2023-08-06T15:40:42;17.50;98.40
43999;DHT22;51319;52.162;5.302;2023-08-06T15:43:12;17.30;98.40
43999;DHT22;51319;52.162;5.302;2023-08-06T15:45:39;17.20;98.70
43999;DHT22;51319;52.162;5.302;2023-08-06T15:48:06;17.10;99.10
43999;DHT22;51319;52.162;5.302;2023-08-06T15:50:39;17.10;99.30
43999;DHT22;51319;52.162;5.302;2023-08-06T15:53:08;17.20;99.60
43999;DHT22;51319;52.162;5.302;2023-08-06T15:55:38;17.30;99.50
43999;DHT22;51319;52.162;5.302;2023-08-06T15:58:05;17.30;99.10
43999;DHT22;51319;52.162;5.302;2023-08-06T16:00:32;17.30;98.80